Terminal Aerodrome Forecast
Issued by NWS

Home | Current Version | Previous Version | Text Only | Print | Product List | Glossary On
Versions: 1 2 3 4 5 6 7 8 9 10 11 12 13 14 15 16 17 18 19 20 21 22 23 24 25 26 27 28 29 30 31 32 33 34
000
FTUS44 KOUN 031130
TAFPNC
TAF
KPNC 031130Z 0312/0412 20012G23KT 5SM BR OVC007
     FM032000 26010KT P6SM OVC015
     FM040000 36010KT 5SM BR OVC010 PROB30 0401/0406 4SM -RAPL BR
      OVC009
     FM040600 02017G26KT 4SM BR OVC009
      TEMPO 0406/0410 2SM -SN BR OVC007=

USA.gov is the U.S. government's official web portal to all federal, state and local government web resources and services.